Blairsville, Indiana
Current Conditions -  °F | °C
As of 4:33 AM on Thursday 27 Nov 2014 (Local Time) from KEVV Reporting Station
Broken Clouds Broken Clouds  
Wind Chill: 25°   Ceiling: 1100
Heat Index: 32°   Visibility: 7mi
Dew Point: 27°   Wind: 8mph
Humidity: 82%   Direction: 320°NW
Pressure: 30.28"   Gusts: NA
Location:  38.0787°N, 87.7717°W
Report Text: KEVV 271033Z AUTO 32007KT 7SM BKN011 00/M03 A3028 RMK AO2 T00001028
Loading
Personal Weather Stations






























Interactive Weather Map New forecast layout! Learn more

10-Day Weather Forecast

Advertisements
Track Severe Weather on mobile